createdAt,value
2023-05-21T00:01:24.022Z,15.00
2023-05-21T00:03:54.213Z,15.00
2023-05-21T00:06:23.325Z,14.90
2023-05-21T00:08:52.423Z,14.90
2023-05-21T00:11:21.072Z,14.90
2023-05-21T00:13:52.867Z,14.90
2023-05-21T00:16:21.288Z,14.90
2023-05-21T00:18:50.370Z,15.10
2023-05-21T00:21:27.584Z,14.90
2023-05-21T00:23:56.531Z,14.80
2023-05-21T00:26:25.192Z,14.90
2023-05-21T00:28:53.903Z,14.90
2023-05-21T00:31:22.814Z,14.80
2023-05-21T00:33:53.256Z,14.80
2023-05-21T00:36:23.844Z,14.80
2023-05-21T00:39:05.327Z,14.80
2023-05-21T00:41:35.446Z,14.80
2023-05-21T00:44:04.207Z,14.70
2023-05-21T00:46:32.783Z,14.70
2023-05-21T00:49:02.106Z,14.70
2023-05-21T00:51:34.082Z,14.70
2023-05-21T00:54:05.094Z,14.60
2023-05-21T00:56:34.187Z,14.60
2023-05-21T00:59:05.573Z,14.60
2023-05-21T01:01:39.886Z,14.50
2023-05-21T01:04:09.779Z,14.50
2023-05-21T01:06:40.804Z,14.50
2023-05-21T01:09:10.656Z,14.50
2023-05-21T01:11:42.827Z,14.40
2023-05-21T01:14:14.623Z,14.30
2023-05-21T01:16:50.970Z,14.30
2023-05-21T01:19:22.882Z,14.30
2023-05-21T01:22:00.486Z,14.30
2023-05-21T01:24:37.142Z,14.30
2023-05-21T01:27:10.353Z,14.10
2023-05-21T01:29:45.106Z,14.30
2023-05-21T01:32:24.953Z,14.20
2023-05-21T01:35:01.319Z,14.20
2023-05-21T01:37:36.106Z,14.40
2023-05-21T01:40:12.397Z,14.20
2023-05-21T01:42:43.738Z,14.20
2023-05-21T01:45:13.351Z,14.10
2023-05-21T01:47:43.071Z,14.10
2023-05-21T01:50:12.552Z,14.10
2023-05-21T01:52:43.049Z,14.10
2023-05-21T01:55:13.630Z,14.10
2023-05-21T01:57:41.997Z,14.10
2023-05-21T02:00:14.850Z,14.10
2023-05-21T02:02:43.497Z,14.10
2023-05-21T02:05:12.234Z,14.10
2023-05-21T02:07:41.038Z,14.10
2023-05-21T02:10:10.102Z,14.00
2023-05-21T02:12:43.198Z,14.10
2023-05-21T02:15:18.144Z,14.10
2023-05-21T02:17:51.527Z,14.10
2023-05-21T02:20:23.154Z,14.00
2023-05-21T02:22:51.971Z,14.00
2023-05-21T02:25:32.534Z,13.90
2023-05-21T02:28:02.759Z,14.00
2023-05-21T02:30:33.035Z,13.90
2023-05-21T02:33:07.314Z,13.90
2023-05-21T02:35:38.998Z,13.80
2023-05-21T02:38:09.493Z,13.80
2023-05-21T02:40:45.805Z,13.80
2023-05-21T02:43:24.066Z,13.80
2023-05-21T02:45:59.113Z,13.60
2023-05-21T02:48:35.447Z,13.70
2023-05-21T02:51:10.652Z,13.70
2023-05-21T02:53:43.592Z,13.90
2023-05-21T02:56:18.229Z,13.70
2023-05-21T02:58:50.086Z,13.70
2023-05-21T03:01:25.462Z,13.80
2023-05-21T03:03:55.956Z,13.80
2023-05-21T03:06:28.723Z,13.80
2023-05-21T03:09:01.324Z,13.80
2023-05-21T03:11:34.880Z,13.80
2023-05-21T03:14:07.077Z,13.90
2023-05-21T03:16:42.707Z,13.90
2023-05-21T03:19:17.239Z,13.90
2023-05-21T03:21:52.717Z,14.00
2023-05-21T03:24:22.724Z,14.10
2023-05-21T03:26:55.030Z,14.10
2023-05-21T03:29:29.933Z,14.10
2023-05-21T03:32:11.467Z,14.20
2023-05-21T03:34:47.002Z,14.20
2023-05-21T03:37:17.086Z,14.30
2023-05-21T03:39:46.868Z,14.30
2023-05-21T03:42:18.771Z,14.40
2023-05-21T03:44:49.089Z,14.50
2023-05-21T03:47:18.302Z,14.70
2023-05-21T03:49:50.766Z,14.90
2023-05-21T03:52:22.794Z,15.00
2023-05-21T03:54:55.421Z,15.30
2023-05-21T03:57:25.911Z,15.40
2023-05-21T04:00:03.361Z,15.70
2023-05-21T04:02:37.001Z,15.80
2023-05-21T04:05:07.328Z,16.00
2023-05-21T04:07:39.004Z,16.20
2023-05-21T04:10:12.631Z,16.40
2023-05-21T04:12:42.751Z,16.60
2023-05-21T04:15:15.467Z,16.90
2023-05-21T04:17:46.187Z,17.00
2023-05-21T04:20:28.226Z,17.10
2023-05-21T04:23:09.400Z,17.40
2023-05-21T04:25:51.425Z,17.60
2023-05-21T04:28:30.759Z,17.80
2023-05-21T04:31:03.752Z,18.10
2023-05-21T04:33:36.061Z,18.20
2023-05-21T04:36:11.307Z,18.40
2023-05-21T04:38:42.403Z,18.50
2023-05-21T04:41:15.288Z,18.60
2023-05-21T04:43:52.853Z,18.80
2023-05-21T04:46:27.513Z,19.00
2023-05-21T04:49:18.776Z,19.20
2023-05-21T04:52:02.248Z,19.40
2023-05-21T04:54:34.235Z,19.60
2023-05-21T04:57:03.622Z,19.80
2023-05-21T04:59:37.115Z,20.00
2023-05-21T05:02:10.191Z,20.10
2023-05-21T05:04:46.246Z,20.40
2023-05-21T05:07:23.838Z,20.50
2023-05-21T05:09:59.813Z,20.60
2023-05-21T05:12:37.673Z,20.80
2023-05-21T05:15:13.252Z,20.90
2023-05-21T05:17:49.757Z,21.10
2023-05-21T05:20:27.416Z,21.30
2023-05-21T05:23:03.289Z,21.60
2023-05-21T05:25:35.980Z,21.80
2023-05-21T05:28:14.999Z,22.00
2023-05-21T05:30:47.020Z,22.00
2023-05-21T05:33:27.297Z,22.00
2023-05-21T05:36:17.080Z,22.00
2023-05-21T05:38:53.574Z,22.20
2023-05-21T05:41:27.348Z,22.30
2023-05-21T05:43:58.956Z,22.50
2023-05-21T05:46:40.243Z,22.70
2023-05-21T05:49:20.132Z,22.90
2023-05-21T05:52:00.874Z,23.10
2023-05-21T05:54:35.679Z,23.30
2023-05-21T05:57:11.596Z,23.50
2023-05-21T06:00:00.367Z,23.70
2023-05-21T06:02:48.969Z,23.80
2023-05-21T06:05:29.024Z,23.90
2023-05-21T06:08:03.658Z,23.80
2023-05-21T06:10:50.407Z,24.10
2023-05-21T06:13:28.583Z,24.20
2023-05-21T06:16:11.864Z,24.30
2023-05-21T06:18:49.857Z,24.50
2023-05-21T06:21:30.599Z,24.60
2023-05-21T06:24:25.231Z,24.70
2023-05-21T06:27:02.672Z,24.90
2023-05-21T06:29:51.313Z,25.20
2023-05-21T06:32:25.890Z,25.50
2023-05-21T06:34:58.459Z,25.90
2023-05-21T06:37:39.327Z,26.20
2023-05-21T06:40:22.240Z,26.40
2023-05-21T06:43:06.932Z,26.50
2023-05-21T06:46:21.784Z,26.60
2023-05-21T06:49:17.030Z,26.60
2023-05-21T06:51:57.926Z,26.60
2023-05-21T06:55:20.366Z,26.50
2023-05-21T06:58:17.464Z,26.60
2023-05-21T07:01:11.154Z,26.80
2023-05-21T07:03:56.438Z,27.30
2023-05-21T07:07:13.503Z,27.60
2023-05-21T07:09:51.512Z,27.90
2023-05-21T07:13:03.828Z,28.30
2023-05-21T07:15:44.615Z,28.50
2023-05-21T07:18:35.761Z,28.70
2023-05-21T07:21:13.091Z,28.90
2023-05-21T07:23:46.572Z,28.90
2023-05-21T07:26:31.484Z,28.90
2023-05-21T07:29:14.368Z,28.90
2023-05-21T07:31:52.448Z,29.10
2023-05-21T07:34:26.773Z,29.30
2023-05-21T07:37:04.960Z,29.50
2023-05-21T07:40:22.802Z,29.60
2023-05-21T07:43:46.834Z,29.60
2023-05-21T07:46:25.069Z,29.70
2023-05-21T07:49:22.096Z,29.70
2023-05-21T07:52:14.395Z,29.90
2023-05-21T07:54:58.943Z,30.00
2023-05-21T07:57:37.278Z,30.40
2023-05-21T08:00:27.564Z,30.60
2023-05-21T08:03:00.424Z,30.70
2023-05-21T08:05:39.789Z,30.60
2023-05-21T08:08:14.774Z,30.50
2023-05-21T08:10:51.853Z,30.40
2023-05-21T08:13:28.893Z,30.20
2023-05-21T08:19:52.642Z,30.40
2023-05-21T08:22:36.282Z,30.30
2023-05-21T08:25:15.037Z,30.50
2023-05-21T08:27:55.363Z,30.60
2023-05-21T08:30:41.298Z,30.80
2023-05-21T08:36:44.006Z,30.80
2023-05-21T08:39:22.566Z,30.90
2023-05-21T08:42:10.865Z,31.00
2023-05-21T08:45:32.388Z,30.80
2023-05-21T08:48:05.596Z,30.70
2023-05-21T08:50:44.475Z,30.70
2023-05-21T08:53:37.437Z,30.60
2023-05-21T08:56:12.343Z,30.60
2023-05-21T08:59:09.383Z,30.60
2023-05-21T09:05:31.009Z,30.60
2023-05-21T09:08:15.155Z,30.60
2023-05-21T09:11:51.492Z,30.40
2023-05-21T09:14:51.111Z,30.30
2023-05-21T09:17:45.549Z,30.20
2023-05-21T09:20:49.761Z,30.20
2023-05-21T09:24:06.861Z,30.20
2023-05-21T09:26:46.146Z,30.20
2023-05-21T09:32:29.576Z,29.90
2023-05-21T09:35:16.285Z,29.90
2023-05-21T09:37:53.935Z,29.90
2023-05-21T09:41:01.654Z,29.80
2023-05-21T09:44:26.425Z,29.90
2023-05-21T09:47:09.199Z,29.80
2023-05-21T09:49:57.477Z,29.80
2023-05-21T09:53:17.050Z,29.70
2023-05-21T09:56:36.666Z,29.70
2023-05-21T09:59:11.403Z,29.50
2023-05-21T10:02:30.672Z,29.20
2023-05-21T10:05:05.800Z,29.20
2023-05-21T10:08:42.355Z,29.00
2023-05-21T10:14:59.070Z,28.60
2023-05-21T10:18:12.933Z,28.50
2023-05-21T10:21:16.863Z,28.40
2023-05-21T10:23:58.392Z,28.30
2023-05-21T10:26:55.550Z,28.40
2023-05-21T10:29:50.417Z,28.40
2023-05-21T10:32:34.602Z,28.40
2023-05-21T10:35:50.135Z,28.50
2023-05-21T10:39:10.006Z,28.60
2023-05-21T10:42:08.343Z,28.60
2023-05-21T10:44:56.349Z,28.50
2023-05-21T10:54:23.746Z,28.60
2023-05-21T10:55:42.816Z,28.70
2023-05-21T11:20:53.772Z,28.30
2023-05-21T11:23:34.153Z,28.30
2023-05-21T11:26:43.351Z,28.40
2023-05-21T11:29:23.209Z,28.60
2023-05-21T11:32:54.798Z,28.60
2023-05-21T11:35:39.446Z,28.50
2023-05-21T11:39:29.664Z,28.20
2023-05-21T11:43:03.167Z,28.00
2023-05-21T11:46:20.796Z,27.70
2023-05-21T11:49:29.001Z,27.60
2023-05-21T11:52:35.677Z,27.60
2023-05-21T11:55:52.508Z,27.50
2023-05-21T11:58:55.547Z,27.50
2023-05-21T12:02:34.114Z,27.50
2023-05-21T12:05:22.577Z,27.40
2023-05-21T12:07:58.646Z,27.30
2023-05-21T12:10:52.384Z,27.20
2023-05-21T12:13:58.001Z,27.10
2023-05-21T12:16:49.365Z,27.10
2023-05-21T12:19:28.915Z,27.10
2023-05-21T12:21:59.484Z,27.00
2023-05-21T12:24:47.545Z,26.90
2023-05-21T12:27:39.472Z,26.90
2023-05-21T12:30:18.033Z,26.90
2023-05-21T12:33:15.099Z,27.00
2023-05-21T12:36:26.982Z,26.90
2023-05-21T12:39:40.082Z,26.80
2023-05-21T12:42:38.461Z,26.70
2023-05-21T12:45:43.633Z,26.70
2023-05-21T12:48:20.002Z,26.60
2023-05-21T12:51:25.133Z,26.60
2023-05-21T12:54:27.939Z,26.60
2023-05-21T12:57:12.393Z,26.50
2023-05-21T12:59:57.371Z,26.40
2023-05-21T13:03:04.988Z,26.40
2023-05-21T13:05:38.384Z,26.30
2023-05-21T13:08:26.699Z,26.20
2023-05-21T13:11:27.171Z,26.20
2023-05-21T13:17:34.060Z,26.00
2023-05-21T13:20:39.498Z,25.90
2023-05-21T13:23:41.402Z,25.80
2023-05-21T13:26:39.981Z,25.80
2023-05-21T13:32:11.716Z,25.70
2023-05-21T13:34:50.844Z,25.90
2023-05-21T13:37:25.690Z,25.90
2023-05-21T13:42:51.014Z,25.90
2023-05-21T13:45:31.452Z,25.90
2023-05-21T13:51:22.417Z,25.90
2023-05-21T13:53:59.615Z,25.90
2023-05-21T13:56:27.994Z,25.90
2023-05-21T13:58:56.575Z,25.90
2023-05-21T14:01:25.032Z,25.90
2023-05-21T14:03:53.755Z,25.80
2023-05-21T14:06:23.380Z,25.80
2023-05-21T14:08:51.922Z,25.70
2023-05-21T14:11:20.291Z,25.80
2023-05-21T14:13:48.913Z,25.80
2023-05-21T14:16:18.272Z,25.70
2023-05-21T14:18:47.138Z,25.80
2023-05-21T14:21:15.533Z,25.70
2023-05-21T14:23:45.678Z,25.70
2023-05-21T14:26:13.963Z,25.70
2023-05-21T14:28:42.854Z,25.60
2023-05-21T14:31:11.259Z,25.60
2023-05-21T14:33:40.487Z,25.70
2023-05-21T14:36:08.884Z,25.70
2023-05-21T14:38:37.386Z,25.60
2023-05-21T14:41:07.450Z,25.60
2023-05-21T14:43:36.093Z,25.60
2023-05-21T14:46:04.624Z,25.50
2023-05-21T14:48:33.205Z,25.50
2023-05-21T14:51:01.525Z,25.40
2023-05-21T14:53:30.272Z,25.30
2023-05-21T14:55:58.721Z,25.20
2023-05-21T14:58:28.603Z,25.10
2023-05-21T15:00:56.880Z,25.00
2023-05-21T15:03:25.541Z,25.00
2023-05-21T15:05:54.075Z,25.00
2023-05-21T15:08:22.715Z,25.00
2023-05-21T15:10:51.031Z,25.00
2023-05-21T15:13:19.519Z,24.90
2023-05-21T15:15:49.153Z,24.90
2023-05-21T15:18:17.718Z,24.90
2023-05-21T15:20:46.194Z,24.90
2023-05-21T15:23:17.267Z,24.80
2023-05-21T15:25:45.946Z,24.80
2023-05-21T15:28:16.053Z,24.70
2023-05-21T15:30:44.441Z,24.70
2023-05-21T15:33:14.417Z,24.70
2023-05-21T15:35:43.122Z,24.80
2023-05-21T15:38:12.007Z,24.70
2023-05-21T15:40:41.396Z,24.70
2023-05-21T15:43:10.054Z,24.70
2023-05-21T15:45:39.145Z,24.70
2023-05-21T15:48:08.512Z,24.70
2023-05-21T15:50:38.219Z,24.70
2023-05-21T15:53:06.741Z,24.70
2023-05-21T15:55:35.533Z,24.70
2023-05-21T15:58:05.069Z,24.70
2023-05-21T16:00:33.442Z,24.60
2023-05-21T16:03:02.267Z,24.60
2023-05-21T16:05:30.712Z,24.60
2023-05-21T16:08:00.725Z,24.60
2023-05-21T16:10:29.000Z,24.70
2023-05-21T16:12:57.492Z,24.60
2023-05-21T16:15:25.697Z,24.60
2023-05-21T16:17:54.257Z,24.70
2023-05-21T16:20:22.546Z,24.60
2023-05-21T16:22:51.209Z,24.70
2023-05-21T16:25:21.113Z,24.70
2023-05-21T16:27:50.015Z,24.80
2023-05-21T16:30:18.811Z,24.80
2023-05-21T16:32:47.367Z,24.90
2023-05-21T16:35:15.764Z,24.90
2023-05-21T16:37:44.247Z,24.90
2023-05-21T16:40:13.492Z,24.90
2023-05-21T16:42:43.771Z,24.90
2023-05-21T16:45:19.416Z,24.80
2023-05-21T16:47:48.835Z,24.80
2023-05-21T16:50:17.453Z,24.70
2023-05-21T16:52:46.201Z,24.70
2023-05-21T16:55:14.488Z,24.60
2023-05-21T16:57:44.313Z,24.50
2023-05-21T17:00:13.564Z,24.40
2023-05-21T17:02:42.315Z,24.40
2023-05-21T17:05:10.922Z,24.30
2023-05-21T17:07:39.440Z,24.20
2023-05-21T17:10:08.833Z,24.10
2023-05-21T17:12:37.656Z,24.00
2023-05-21T17:15:08.738Z,23.90
2023-05-21T17:17:37.305Z,23.80
2023-05-21T17:20:06.254Z,23.70
2023-05-21T17:22:34.741Z,23.70
2023-05-21T17:25:03.106Z,23.70
2023-05-21T17:27:32.425Z,23.60
2023-05-21T17:30:00.606Z,23.50
2023-05-21T17:32:30.589Z,23.50
2023-05-21T17:34:58.955Z,23.40
2023-05-21T17:37:27.488Z,23.30
2023-05-21T17:39:57.639Z,23.30
2023-05-21T17:42:26.183Z,23.30
2023-05-21T17:44:55.009Z,23.10
2023-05-21T17:47:23.590Z,23.10
2023-05-21T17:49:53.324Z,23.00
2023-05-21T17:52:21.879Z,23.00
2023-05-21T17:54:50.132Z,23.00
2023-05-21T17:57:20.281Z,22.90
2023-05-21T17:59:48.586Z,22.80
2023-05-21T18:02:17.099Z,22.80
2023-05-21T18:04:45.410Z,22.70
2023-05-21T18:07:16.091Z,22.70
2023-05-21T18:09:44.584Z,22.60
2023-05-21T18:12:13.077Z,22.60
2023-05-21T18:14:41.329Z,22.50
2023-05-21T18:17:09.965Z,22.40
2023-05-21T18:19:38.333Z,22.30
2023-05-21T18:22:06.847Z,22.30
2023-05-21T18:24:37.494Z,22.20
2023-05-21T18:27:06.234Z,22.10
2023-05-21T18:29:34.460Z,21.90
2023-05-21T18:32:04.168Z,21.80
2023-05-21T18:34:32.481Z,21.70
2023-05-21T18:37:01.049Z,21.50
2023-05-21T18:39:29.255Z,21.30
2023-05-21T18:42:12.311Z,21.20
2023-05-21T18:44:42.042Z,20.90
2023-05-21T18:47:11.509Z,20.70
2023-05-21T18:49:39.770Z,20.60
2023-05-21T18:52:08.505Z,20.40
2023-05-21T18:54:36.762Z,20.20
2023-05-21T18:57:07.221Z,20.10
2023-05-21T18:59:35.413Z,19.90
2023-05-21T19:02:05.594Z,19.70
2023-05-21T19:04:33.911Z,19.60
2023-05-21T19:07:02.981Z,19.40
2023-05-21T19:09:31.468Z,19.30
2023-05-21T19:12:01.087Z,19.20
2023-05-21T19:14:30.680Z,19.00
2023-05-21T19:16:59.178Z,18.90
2023-05-21T19:19:27.528Z,18.80
2023-05-21T19:21:56.112Z,18.70
2023-05-21T19:24:24.295Z,18.60
2023-05-21T19:26:52.817Z,18.50
2023-05-21T19:29:21.475Z,18.40
2023-05-21T19:31:54.988Z,18.30
2023-05-21T19:34:23.528Z,18.20
2023-05-21T19:36:53.423Z,18.10
2023-05-21T19:39:22.259Z,18.00
2023-05-21T19:41:51.618Z,17.90
2023-05-21T19:44:19.942Z,17.80
2023-05-21T19:46:49.869Z,17.70
2023-05-21T19:49:20.056Z,17.70
2023-05-21T19:51:49.620Z,17.60
2023-05-21T19:54:18.519Z,17.50
2023-05-21T19:56:47.034Z,17.50
2023-05-21T19:59:15.257Z,17.40
2023-05-21T20:01:44.331Z,17.40
2023-05-21T20:04:13.118Z,17.30
2023-05-21T20:06:43.198Z,17.20
2023-05-21T20:09:13.304Z,17.10
2023-05-21T20:11:43.157Z,17.10
2023-05-21T20:14:11.362Z,17.00
2023-05-21T20:16:39.988Z,17.00
2023-05-21T20:19:10.668Z,17.00
2023-05-21T20:21:39.728Z,16.90
2023-05-21T20:24:11.177Z,16.90
2023-05-21T20:26:39.979Z,16.80
2023-05-21T20:29:08.380Z,16.80
2023-05-21T20:31:37.043Z,16.70
2023-05-21T20:34:07.484Z,16.70
2023-05-21T20:36:36.286Z,16.60
2023-05-21T20:39:06.298Z,16.60
2023-05-21T20:41:37.859Z,16.50
2023-05-21T20:44:06.850Z,16.50
2023-05-21T20:46:38.552Z,16.50
2023-05-21T20:49:07.142Z,16.50
2023-05-21T20:51:35.845Z,16.50
2023-05-21T20:54:04.139Z,16.40
2023-05-21T20:56:42.036Z,16.40
2023-05-21T20:59:12.480Z,16.40
2023-05-21T21:01:41.587Z,16.40
2023-05-21T21:04:10.137Z,16.30
2023-05-21T21:06:40.503Z,16.30
2023-05-21T21:09:09.430Z,16.20
2023-05-21T21:11:38.016Z,16.20
2023-05-21T21:14:06.296Z,16.20
2023-05-21T21:16:36.453Z,16.10
2023-05-21T21:19:05.071Z,16.10
2023-05-21T21:21:34.169Z,16.00
2023-05-21T21:24:02.437Z,16.00
2023-05-21T21:26:31.091Z,16.00
2023-05-21T21:28:59.538Z,16.00
2023-05-21T21:31:28.082Z,16.00
2023-05-21T21:33:57.854Z,16.00
2023-05-21T21:36:28.770Z,16.00
2023-05-21T21:38:57.112Z,16.00
2023-05-21T21:41:25.962Z,15.90
2023-05-21T21:43:54.333Z,15.90
2023-05-21T21:46:22.860Z,15.90
2023-05-21T21:48:51.174Z,15.80
2023-05-21T21:51:23.366Z,15.80
2023-05-21T21:53:51.997Z,15.70
2023-05-21T21:56:20.844Z,15.70
2023-05-21T21:58:49.147Z,15.70
2023-05-21T22:01:17.333Z,15.60
2023-05-21T22:03:45.905Z,15.60
2023-05-21T22:06:14.253Z,15.50
2023-05-21T22:08:44.313Z,15.50
2023-05-21T22:11:12.616Z,15.40
2023-05-21T22:13:42.564Z,15.40
2023-05-21T22:16:11.987Z,15.40
2023-05-21T22:18:42.096Z,15.30
2023-05-21T22:21:11.032Z,15.30
2023-05-21T22:23:39.952Z,15.30
2023-05-21T22:26:10.535Z,15.20
2023-05-21T22:28:39.159Z,15.20
2023-05-21T22:31:07.548Z,15.20
2023-05-21T22:33:36.671Z,15.10
2023-05-21T22:36:05.396Z,15.10
2023-05-21T22:38:34.084Z,15.00
2023-05-21T22:41:02.429Z,15.00
2023-05-21T22:43:34.067Z,14.90
2023-05-21T22:46:02.952Z,14.90
2023-05-21T22:48:31.584Z,14.90
2023-05-21T22:51:01.677Z,14.80
2023-05-21T22:53:31.965Z,14.80
2023-05-21T22:56:00.685Z,14.70
2023-05-21T22:58:29.267Z,14.70
2023-05-21T23:00:59.123Z,14.70
2023-05-21T23:03:27.624Z,14.60
2023-05-21T23:05:55.930Z,14.60
2023-05-21T23:08:24.388Z,14.50
2023-05-21T23:10:52.581Z,14.50
2023-05-21T23:13:21.473Z,14.50
2023-05-21T23:15:50.780Z,14.40
2023-05-21T23:18:20.928Z,14.50
2023-05-21T23:20:49.316Z,14.40
2023-05-21T23:23:17.847Z,14.30
2023-05-21T23:25:46.737Z,14.30
2023-05-21T23:28:15.421Z,14.30
2023-05-21T23:30:43.694Z,14.30
2023-05-21T23:33:12.212Z,14.30
2023-05-21T23:35:41.807Z,14.20
2023-05-21T23:38:10.378Z,14.20
2023-05-21T23:40:38.904Z,14.10
2023-05-21T23:43:07.660Z,14.10
2023-05-21T23:45:35.958Z,14.10
2023-05-21T23:48:04.789Z,14.10
2023-05-21T23:50:33.072Z,14.00
2023-05-21T23:53:03.018Z,14.00
2023-05-21T23:55:31.336Z,14.00
2023-05-21T23:57:59.842Z,14.00
